sensor_id;sensor_type;location;lat;lon;timestamp;P1;durP1;ratioP1;P2;durP2;ratioP2
9848;SDS011;4963;51.444;6.528;2024-01-15T00:00:20;32.00;;;18.37;;
9848;SDS011;4963;51.444;6.528;2024-01-15T00:02:47;31.70;;;18.57;;
9848;SDS011;4963;51.444;6.528;2024-01-15T00:05:15;30.27;;;17.70;;
9848;SDS011;4963;51.444;6.528;2024-01-15T00:07:42;27.47;;;16.43;;
9848;SDS011;4963;51.444;6.528;2024-01-15T00:10:09;26.80;;;16.77;;
9848;SDS011;4963;51.444;6.528;2024-01-15T00:12:36;34.70;;;17.93;;
9848;SDS011;4963;51.444;6.528;2024-01-15T00:15:03;30.40;;;17.20;;
9848;SDS011;4963;51.444;6.528;2024-01-15T00:17:31;26.67;;;16.73;;
9848;SDS011;4963;51.444;6.528;2024-01-15T00:19:57;28.33;;;16.50;;
9848;SDS011;4963;51.444;6.528;2024-01-15T00:22:26;29.47;;;17.03;;
9848;SDS011;4963;51.444;6.528;2024-01-15T00:24:53;27.43;;;15.23;;
9848;SDS011;4963;51.444;6.528;2024-01-15T00:27:20;25.73;;;15.33;;
9848;SDS011;4963;51.444;6.528;2024-01-15T00:29:47;29.03;;;16.03;;
9848;SDS011;4963;51.444;6.528;2024-01-15T00:32:16;29.03;;;17.20;;
9848;SDS011;4963;51.444;6.528;2024-01-15T00:34:43;24.57;;;16.13;;
9848;SDS011;4963;51.444;6.528;2024-01-15T00:37:10;30.93;;;17.30;;
9848;SDS011;4963;51.444;6.528;2024-01-15T00:39:38;27.33;;;15.80;;
9848;SDS011;4963;51.444;6.528;2024-01-15T00:42:05;28.90;;;16.77;;
9848;SDS011;4963;51.444;6.528;2024-01-15T00:44:32;28.57;;;15.60;;
9848;SDS011;4963;51.444;6.528;2024-01-15T00:46:59;29.60;;;16.47;;
9848;SDS011;4963;51.444;6.528;2024-01-15T00:49:26;23.97;;;15.50;;
9848;SDS011;4963;51.444;6.528;2024-01-15T00:51:54;26.50;;;17.00;;
9848;SDS011;4963;51.444;6.528;2024-01-15T00:54:21;28.10;;;17.07;;
9848;SDS011;4963;51.444;6.528;2024-01-15T00:56:51;26.47;;;16.23;;
9848;SDS011;4963;51.444;6.528;2024-01-15T00:59:18;29.17;;;18.07;;
9848;SDS011;4963;51.444;6.528;2024-01-15T01:01:45;27.87;;;17.70;;
9848;SDS011;4963;51.444;6.528;2024-01-15T01:04:12;28.50;;;17.33;;
9848;SDS011;4963;51.444;6.528;2024-01-15T01:06:40;29.33;;;18.10;;
9848;SDS011;4963;51.444;6.528;2024-01-15T01:09:06;28.93;;;18.20;;
9848;SDS011;4963;51.444;6.528;2024-01-15T01:11:33;27.20;;;17.80;;
9848;SDS011;4963;51.444;6.528;2024-01-15T01:14:02;27.57;;;17.30;;
9848;SDS011;4963;51.444;6.528;2024-01-15T01:16:28;29.00;;;17.60;;
9848;SDS011;4963;51.444;6.528;2024-01-15T01:18:56;29.33;;;17.90;;
9848;SDS011;4963;51.444;6.528;2024-01-15T01:21:23;29.73;;;18.33;;
9848;SDS011;4963;51.444;6.528;2024-01-15T01:23:50;31.17;;;18.03;;
9848;SDS011;4963;51.444;6.528;2024-01-15T01:26:17;28.57;;;17.53;;
9848;SDS011;4963;51.444;6.528;2024-01-15T01:28:43;32.77;;;18.13;;
9848;SDS011;4963;51.444;6.528;2024-01-15T01:31:12;29.87;;;17.53;;
9848;SDS011;4963;51.444;6.528;2024-01-15T01:33:38;28.53;;;16.37;;
9848;SDS011;4963;51.444;6.528;2024-01-15T01:36:07;27.23;;;16.50;;
9848;SDS011;4963;51.444;6.528;2024-01-15T01:38:34;27.83;;;16.20;;
9848;SDS011;4963;51.444;6.528;2024-01-15T01:41:01;30.13;;;16.87;;
9848;SDS011;4963;51.444;6.528;2024-01-15T01:43:28;26.63;;;15.97;;
9848;SDS011;4963;51.444;6.528;2024-01-15T01:45:55;26.43;;;15.43;;
9848;SDS011;4963;51.444;6.528;2024-01-15T01:48:25;27.90;;;15.30;;
9848;SDS011;4963;51.444;6.528;2024-01-15T01:50:52;28.73;;;15.83;;
9848;SDS011;4963;51.444;6.528;2024-01-15T01:53:21;24.13;;;14.67;;
9848;SDS011;4963;51.444;6.528;2024-01-15T01:55:48;21.57;;;14.30;;
9848;SDS011;4963;51.444;6.528;2024-01-15T01:58:16;23.40;;;14.13;;
9848;SDS011;4963;51.444;6.528;2024-01-15T02:00:44;22.43;;;13.27;;
9848;SDS011;4963;51.444;6.528;2024-01-15T02:03:12;24.57;;;14.53;;
9848;SDS011;4963;51.444;6.528;2024-01-15T02:05:40;20.50;;;12.67;;
9848;SDS011;4963;51.444;6.528;2024-01-15T02:08:10;21.77;;;13.57;;
9848;SDS011;4963;51.444;6.528;2024-01-15T02:10:37;20.73;;;12.87;;
9848;SDS011;4963;51.444;6.528;2024-01-15T02:13:05;21.70;;;13.30;;
9848;SDS011;4963;51.444;6.528;2024-01-15T02:15:32;20.47;;;13.17;;
9848;SDS011;4963;51.444;6.528;2024-01-15T02:17:59;19.53;;;11.70;;
9848;SDS011;4963;51.444;6.528;2024-01-15T02:20:27;24.17;;;12.60;;
9848;SDS011;4963;51.444;6.528;2024-01-15T02:23:01;19.57;;;11.63;;
9848;SDS011;4963;51.444;6.528;2024-01-15T02:25:36;20.33;;;11.80;;
9848;SDS011;4963;51.444;6.528;2024-01-15T02:28:07;21.00;;;10.97;;
9848;SDS011;4963;51.444;6.528;2024-01-15T02:30:36;16.73;;;9.70;;
9848;SDS011;4963;51.444;6.528;2024-01-15T02:33:04;18.03;;;10.10;;
9848;SDS011;4963;51.444;6.528;2024-01-15T02:35:32;14.67;;;9.57;;
9848;SDS011;4963;51.444;6.528;2024-01-15T02:38:03;16.03;;;8.90;;
9848;SDS011;4963;51.444;6.528;2024-01-15T02:40:30;14.63;;;9.03;;
9848;SDS011;4963;51.444;6.528;2024-01-15T02:42:58;14.23;;;9.13;;
9848;SDS011;4963;51.444;6.528;2024-01-15T02:45:24;15.90;;;9.57;;
9848;SDS011;4963;51.444;6.528;2024-01-15T02:47:51;14.10;;;8.17;;
9848;SDS011;4963;51.444;6.528;2024-01-15T02:50:18;13.93;;;8.13;;
9848;SDS011;4963;51.444;6.528;2024-01-15T02:52:45;12.00;;;8.17;;
9848;SDS011;4963;51.444;6.528;2024-01-15T02:55:13;12.43;;;7.23;;
9848;SDS011;4963;51.444;6.528;2024-01-15T02:57:40;11.83;;;8.13;;
9848;SDS011;4963;51.444;6.528;2024-01-15T03:00:07;11.37;;;8.03;;
9848;SDS011;4963;51.444;6.528;2024-01-15T03:02:36;11.67;;;7.37;;
9848;SDS011;4963;51.444;6.528;2024-01-15T03:05:04;12.53;;;8.30;;
9848;SDS011;4963;51.444;6.528;2024-01-15T03:07:31;15.70;;;8.23;;
9848;SDS011;4963;51.444;6.528;2024-01-15T03:09:58;14.30;;;8.50;;
9848;SDS011;4963;51.444;6.528;2024-01-15T03:12:26;12.67;;;7.83;;
9848;SDS011;4963;51.444;6.528;2024-01-15T03:14:53;13.53;;;8.80;;
9848;SDS011;4963;51.444;6.528;2024-01-15T03:17:20;11.83;;;7.50;;
9848;SDS011;4963;51.444;6.528;2024-01-15T03:19:47;11.70;;;7.77;;
9848;SDS011;4963;51.444;6.528;2024-01-15T03:22:14;15.00;;;8.43;;
9848;SDS011;4963;51.444;6.528;2024-01-15T03:24:41;15.03;;;8.33;;
9848;SDS011;4963;51.444;6.528;2024-01-15T03:27:08;15.77;;;9.07;;
9848;SDS011;4963;51.444;6.528;2024-01-15T03:29:36;15.60;;;8.13;;
9848;SDS011;4963;51.444;6.528;2024-01-15T03:32:03;14.67;;;8.33;;
9848;SDS011;4963;51.444;6.528;2024-01-15T03:34:30;12.13;;;8.00;;
9848;SDS011;4963;51.444;6.528;2024-01-15T03:36:57;16.23;;;8.67;;
9848;SDS011;4963;51.444;6.528;2024-01-15T03:39:24;15.53;;;10.03;;
9848;SDS011;4963;51.444;6.528;2024-01-15T03:41:51;15.60;;;10.37;;
9848;SDS011;4963;51.444;6.528;2024-01-15T03:44:18;17.07;;;10.20;;
9848;SDS011;4963;51.444;6.528;2024-01-15T03:46:46;15.30;;;10.60;;
9848;SDS011;4963;51.444;6.528;2024-01-15T03:49:14;17.30;;;10.43;;
9848;SDS011;4963;51.444;6.528;2024-01-15T03:51:41;17.30;;;11.30;;
9848;SDS011;4963;51.444;6.528;2024-01-15T03:54:08;16.83;;;11.03;;
9848;SDS011;4963;51.444;6.528;2024-01-15T03:56:35;17.90;;;10.43;;
9848;SDS011;4963;51.444;6.528;2024-01-15T03:59:02;19.37;;;10.70;;
9848;SDS011;4963;51.444;6.528;2024-01-15T04:01:29;16.27;;;9.73;;
9848;SDS011;4963;51.444;6.528;2024-01-15T04:03:57;14.47;;;10.47;;
9848;SDS011;4963;51.444;6.528;2024-01-15T04:06:24;14.63;;;10.73;;
9848;SDS011;4963;51.444;6.528;2024-01-15T04:08:50;14.00;;;9.77;;
9848;SDS011;4963;51.444;6.528;2024-01-15T04:11:17;14.80;;;9.70;;
9848;SDS011;4963;51.444;6.528;2024-01-15T04:13:44;14.33;;;9.13;;
9848;SDS011;4963;51.444;6.528;2024-01-15T04:16:11;15.40;;;8.87;;
9848;SDS011;4963;51.444;6.528;2024-01-15T04:18:38;11.83;;;8.40;;
9848;SDS011;4963;51.444;6.528;2024-01-15T04:21:06;17.83;;;9.63;;
9848;SDS011;4963;51.444;6.528;2024-01-15T04:23:33;16.07;;;8.20;;
9848;SDS011;4963;51.444;6.528;2024-01-15T04:26:00;12.03;;;7.63;;
9848;SDS011;4963;51.444;6.528;2024-01-15T04:28:27;13.50;;;7.67;;
9848;SDS011;4963;51.444;6.528;2024-01-15T04:30:53;16.43;;;8.30;;
9848;SDS011;4963;51.444;6.528;2024-01-15T04:33:20;12.07;;;7.70;;
9848;SDS011;4963;51.444;6.528;2024-01-15T04:35:48;12.20;;;7.50;;
9848;SDS011;4963;51.444;6.528;2024-01-15T04:38:16;16.53;;;8.17;;
9848;SDS011;4963;51.444;6.528;2024-01-15T04:40:43;11.27;;;7.33;;
9848;SDS011;4963;51.444;6.528;2024-01-15T04:43:10;12.30;;;7.73;;
9848;SDS011;4963;51.444;6.528;2024-01-15T04:45:39;10.20;;;7.63;;
9848;SDS011;4963;51.444;6.528;2024-01-15T04:48:06;14.27;;;8.40;;
9848;SDS011;4963;51.444;6.528;2024-01-15T04:50:33;14.20;;;8.27;;
9848;SDS011;4963;51.444;6.528;2024-01-15T04:53:00;14.97;;;8.23;;
9848;SDS011;4963;51.444;6.528;2024-01-15T04:55:28;14.50;;;9.00;;
9848;SDS011;4963;51.444;6.528;2024-01-15T04:57:55;16.23;;;9.07;;
9848;SDS011;4963;51.444;6.528;2024-01-15T05:00:22;14.03;;;8.57;;
9848;SDS011;4963;51.444;6.528;2024-01-15T05:02:48;13.97;;;9.10;;
9848;SDS011;4963;51.444;6.528;2024-01-15T05:05:15;15.87;;;9.93;;
9848;SDS011;4963;51.444;6.528;2024-01-15T05:07:42;13.77;;;8.87;;
9848;SDS011;4963;51.444;6.528;2024-01-15T05:10:09;15.17;;;8.07;;
9848;SDS011;4963;51.444;6.528;2024-01-15T05:12:37;12.67;;;7.90;;
9848;SDS011;4963;51.444;6.528;2024-01-15T05:15:05;13.97;;;8.33;;
9848;SDS011;4963;51.444;6.528;2024-01-15T05:17:32;10.13;;;7.90;;
9848;SDS011;4963;51.444;6.528;2024-01-15T05:19:59;10.60;;;8.03;;
9848;SDS011;4963;51.444;6.528;2024-01-15T05:22:26;12.57;;;6.87;;
9848;SDS011;4963;51.444;6.528;2024-01-15T05:24:53;12.73;;;7.30;;
9848;SDS011;4963;51.444;6.528;2024-01-15T05:27:19;12.87;;;7.93;;
9848;SDS011;4963;51.444;6.528;2024-01-15T05:29:48;14.20;;;7.13;;
9848;SDS011;4963;51.444;6.528;2024-01-15T05:32:14;12.90;;;7.10;;
9848;SDS011;4963;51.444;6.528;2024-01-15T05:34:41;9.97;;;7.60;;
9848;SDS011;4963;51.444;6.528;2024-01-15T05:37:08;14.70;;;6.80;;
9848;SDS011;4963;51.444;6.528;2024-01-15T05:39:35;12.93;;;6.80;;
9848;SDS011;4963;51.444;6.528;2024-01-15T05:42:02;13.00;;;6.53;;
9848;SDS011;4963;51.444;6.528;2024-01-15T05:44:29;10.53;;;6.57;;
9848;SDS011;4963;51.444;6.528;2024-01-15T05:46:57;12.40;;;6.37;;
9848;SDS011;4963;51.444;6.528;2024-01-15T05:49:24;12.13;;;6.77;;
9848;SDS011;4963;51.444;6.528;2024-01-15T05:51:51;10.70;;;5.60;;
9848;SDS011;4963;51.444;6.528;2024-01-15T05:54:18;11.10;;;5.57;;
9848;SDS011;4963;51.444;6.528;2024-01-15T05:56:45;9.70;;;5.57;;
9848;SDS011;4963;51.444;6.528;2024-01-15T05:59:12;10.40;;;4.70;;
9848;SDS011;4963;51.444;6.528;2024-01-15T06:01:39;8.87;;;4.60;;
9848;SDS011;4963;51.444;6.528;2024-01-15T06:04:07;10.40;;;5.53;;
9848;SDS011;4963;51.444;6.528;2024-01-15T06:06:34;9.17;;;4.20;;
9848;SDS011;4963;51.444;6.528;2024-01-15T06:09:01;12.53;;;5.90;;
9848;SDS011;4963;51.444;6.528;2024-01-15T06:11:30;6.77;;;3.27;;
9848;SDS011;4963;51.444;6.528;2024-01-15T06:13:57;9.83;;;4.13;;
9848;SDS011;4963;51.444;6.528;2024-01-15T06:16:25;9.00;;;5.33;;
9848;SDS011;4963;51.444;6.528;2024-01-15T06:18:53;6.90;;;3.90;;
9848;SDS011;4963;51.444;6.528;2024-01-15T06:21:21;6.17;;;3.30;;
9848;SDS011;4963;51.444;6.528;2024-01-15T06:23:48;6.87;;;3.13;;
9848;SDS011;4963;51.444;6.528;2024-01-15T06:26:15;7.30;;;3.83;;
9848;SDS011;4963;51.444;6.528;2024-01-15T06:28:41;5.60;;;2.67;;
9848;SDS011;4963;51.444;6.528;2024-01-15T06:31:08;8.07;;;3.00;;
9848;SDS011;4963;51.444;6.528;2024-01-15T06:33:35;7.87;;;2.80;;
9848;SDS011;4963;51.444;6.528;2024-01-15T06:36:03;6.87;;;2.83;;
9848;SDS011;4963;51.444;6.528;2024-01-15T06:38:32;5.33;;;2.67;;
9848;SDS011;4963;51.444;6.528;2024-01-15T06:40:59;7.93;;;2.80;;
9848;SDS011;4963;51.444;6.528;2024-01-15T06:43:26;6.87;;;3.70;;
9848;SDS011;4963;51.444;6.528;2024-01-15T06:45:53;8.70;;;3.73;;
9848;SDS011;4963;51.444;6.528;2024-01-15T06:48:21;6.40;;;3.43;;
9848;SDS011;4963;51.444;6.528;2024-01-15T06:50:48;6.50;;;2.80;;
9848;SDS011;4963;51.444;6.528;2024-01-15T06:53:15;10.30;;;5.67;;
9848;SDS011;4963;51.444;6.528;2024-01-15T06:55:43;8.80;;;5.10;;
9848;SDS011;4963;51.444;6.528;2024-01-15T06:58:10;14.63;;;8.83;;
9848;SDS011;4963;51.444;6.528;2024-01-15T07:00:37;9.53;;;5.87;;
9848;SDS011;4963;51.444;6.528;2024-01-15T07:03:04;4.77;;;3.20;;
9848;SDS011;4963;51.444;6.528;2024-01-15T07:05:30;10.77;;;5.77;;
9848;SDS011;4963;51.444;6.528;2024-01-15T07:07:57;7.23;;;4.33;;
9848;SDS011;4963;51.444;6.528;2024-01-15T07:10:24;6.00;;;3.80;;
9848;SDS011;4963;51.444;6.528;2024-01-15T07:12:53;12.77;;;6.30;;
9848;SDS011;4963;51.444;6.528;2024-01-15T07:15:20;7.93;;;4.67;;
9848;SDS011;4963;51.444;6.528;2024-01-15T07:17:47;14.90;;;7.03;;
9848;SDS011;4963;51.444;6.528;2024-01-15T07:20:14;7.53;;;5.47;;
9848;SDS011;4963;51.444;6.528;2024-01-15T07:22:42;13.67;;;7.77;;
9848;SDS011;4963;51.444;6.528;2024-01-15T07:25:09;14.70;;;8.33;;
9848;SDS011;4963;51.444;6.528;2024-01-15T07:27:37;15.40;;;9.07;;
9848;SDS011;4963;51.444;6.528;2024-01-15T07:30:06;13.63;;;8.10;;
9848;SDS011;4963;51.444;6.528;2024-01-15T07:32:34;17.17;;;11.90;;
9848;SDS011;4963;51.444;6.528;2024-01-15T07:35:01;15.53;;;9.37;;
9848;SDS011;4963;51.444;6.528;2024-01-15T07:37:27;13.10;;;8.97;;
9848;SDS011;4963;51.444;6.528;2024-01-15T07:39:54;14.97;;;9.77;;
9848;SDS011;4963;51.444;6.528;2024-01-15T07:42:21;24.77;;;16.57;;
9848;SDS011;4963;51.444;6.528;2024-01-15T07:44:48;13.37;;;11.27;;
9848;SDS011;4963;51.444;6.528;2024-01-15T07:47:18;13.13;;;10.47;;
9848;SDS011;4963;51.444;6.528;2024-01-15T07:49:45;15.97;;;11.10;;
9848;SDS011;4963;51.444;6.528;2024-01-15T07:52:11;12.77;;;10.00;;
9848;SDS011;4963;51.444;6.528;2024-01-15T07:54:40;14.00;;;10.83;;
9848;SDS011;4963;51.444;6.528;2024-01-15T07:57:07;14.23;;;11.23;;
9848;SDS011;4963;51.444;6.528;2024-01-15T07:59:34;12.50;;;9.90;;
9848;SDS011;4963;51.444;6.528;2024-01-15T08:02:01;15.63;;;10.70;;
9848;SDS011;4963;51.444;6.528;2024-01-15T08:04:30;12.47;;;10.13;;
9848;SDS011;4963;51.444;6.528;2024-01-15T08:06:57;15.47;;;10.47;;
9848;SDS011;4963;51.444;6.528;2024-01-15T08:09:24;13.50;;;11.57;;
9848;SDS011;4963;51.444;6.528;2024-01-15T08:11:51;14.20;;;10.23;;
9848;SDS011;4963;51.444;6.528;2024-01-15T08:14:18;13.33;;;11.03;;
9848;SDS011;4963;51.444;6.528;2024-01-15T08:16:45;15.37;;;10.27;;
9848;SDS011;4963;51.444;6.528;2024-01-15T08:19:12;13.70;;;11.27;;
9848;SDS011;4963;51.444;6.528;2024-01-15T08:21:40;14.27;;;11.03;;
9848;SDS011;4963;51.444;6.528;2024-01-15T08:24:08;12.87;;;10.10;;
9848;SDS011;4963;51.444;6.528;2024-01-15T08:26:36;11.17;;;9.30;;
9848;SDS011;4963;51.444;6.528;2024-01-15T08:29:03;11.40;;;9.77;;
9848;SDS011;4963;51.444;6.528;2024-01-15T08:31:30;10.57;;;9.00;;
9848;SDS011;4963;51.444;6.528;2024-01-15T08:33:57;10.27;;;8.80;;
9848;SDS011;4963;51.444;6.528;2024-01-15T08:36:24;8.80;;;7.90;;
9848;SDS011;4963;51.444;6.528;2024-01-15T08:38:53;8.93;;;7.53;;
9848;SDS011;4963;51.444;6.528;2024-01-15T08:41:20;8.53;;;7.30;;
9848;SDS011;4963;51.444;6.528;2024-01-15T08:43:47;9.33;;;7.77;;
9848;SDS011;4963;51.444;6.528;2024-01-15T08:46:13;7.97;;;6.50;;
9848;SDS011;4963;51.444;6.528;2024-01-15T08:48:40;7.93;;;6.37;;
9848;SDS011;4963;51.444;6.528;2024-01-15T08:51:07;6.63;;;5.40;;
9848;SDS011;4963;51.444;6.528;2024-01-15T08:53:34;6.83;;;5.90;;
9848;SDS011;4963;51.444;6.528;2024-01-15T08:56:03;6.63;;;5.50;;
9848;SDS011;4963;51.444;6.528;2024-01-15T08:58:31;8.20;;;5.60;;
9848;SDS011;4963;51.444;6.528;2024-01-15T09:00:58;7.77;;;5.80;;
9848;SDS011;4963;51.444;6.528;2024-01-15T09:03:25;6.30;;;5.70;;
9848;SDS011;4963;51.444;6.528;2024-01-15T09:05:51;5.83;;;4.77;;
9848;SDS011;4963;51.444;6.528;2024-01-15T09:08:19;5.83;;;5.20;;
9848;SDS011;4963;51.444;6.528;2024-01-15T09:10:49;6.77;;;6.07;;
9848;SDS011;4963;51.444;6.528;2024-01-15T09:13:17;7.57;;;5.97;;
9848;SDS011;4963;51.444;6.528;2024-01-15T09:15:45;6.80;;;5.80;;
9848;SDS011;4963;51.444;6.528;2024-01-15T09:18:13;6.07;;;5.00;;
9848;SDS011;4963;51.444;6.528;2024-01-15T09:20:40;6.10;;;5.20;;
9848;SDS011;4963;51.444;6.528;2024-01-15T09:23:07;5.70;;;5.10;;
9848;SDS011;4963;51.444;6.528;2024-01-15T09:25:34;5.77;;;5.17;;
9848;SDS011;4963;51.444;6.528;2024-01-15T09:28:01;4.53;;;4.13;;
9848;SDS011;4963;51.444;6.528;2024-01-15T09:30:29;6.37;;;5.77;;
9848;SDS011;4963;51.444;6.528;2024-01-15T09:32:56;5.47;;;4.93;;
9848;SDS011;4963;51.444;6.528;2024-01-15T09:35:23;5.07;;;4.10;;
9848;SDS011;4963;51.444;6.528;2024-01-15T09:37:50;4.70;;;4.20;;
9848;SDS011;4963;51.444;6.528;2024-01-15T09:40:17;5.60;;;4.87;;
9848;SDS011;4963;51.444;6.528;2024-01-15T09:42:46;4.73;;;4.23;;
9848;SDS011;4963;51.444;6.528;2024-01-15T09:45:13;4.43;;;4.00;;
9848;SDS011;4963;51.444;6.528;2024-01-15T09:47:42;5.70;;;4.40;;
9848;SDS011;4963;51.444;6.528;2024-01-15T09:50:09;4.47;;;3.73;;
9848;SDS011;4963;51.444;6.528;2024-01-15T09:52:36;4.30;;;3.90;;
9848;SDS011;4963;51.444;6.528;2024-01-15T09:55:03;6.03;;;4.10;;
9848;SDS011;4963;51.444;6.528;2024-01-15T09:57:31;6.17;;;3.77;;
9848;SDS011;4963;51.444;6.528;2024-01-15T09:59:58;6.57;;;4.00;;
9848;SDS011;4963;51.444;6.528;2024-01-15T10:02:29;6.60;;;3.70;;
9848;SDS011;4963;51.444;6.528;2024-01-15T10:04:58;5.40;;;4.90;;
9848;SDS011;4963;51.444;6.528;2024-01-15T10:07:25;5.87;;;4.03;;
9848;SDS011;4963;51.444;6.528;2024-01-15T10:09:53;4.23;;;3.83;;
9848;SDS011;4963;51.444;6.528;2024-01-15T10:12:20;4.33;;;3.60;;
9848;SDS011;4963;51.444;6.528;2024-01-15T10:14:48;10.63;;;4.40;;
9848;SDS011;4963;51.444;6.528;2024-01-15T10:17:16;5.43;;;3.83;;
9848;SDS011;4963;51.444;6.528;2024-01-15T10:19:44;5.10;;;3.80;;
9848;SDS011;4963;51.444;6.528;2024-01-15T10:22:14;4.03;;;3.30;;
9848;SDS011;4963;51.444;6.528;2024-01-15T10:24:42;4.30;;;3.47;;
9848;SDS011;4963;51.444;6.528;2024-01-15T10:27:10;4.13;;;3.57;;
9848;SDS011;4963;51.444;6.528;2024-01-15T10:29:37;5.70;;;4.00;;
9848;SDS011;4963;51.444;6.528;2024-01-15T10:32:06;4.40;;;3.63;;
9848;SDS011;4963;51.444;6.528;2024-01-15T10:34:37;4.33;;;3.80;;
9848;SDS011;4963;51.444;6.528;2024-01-15T10:37:05;6.80;;;5.07;;
9848;SDS011;4963;51.444;6.528;2024-01-15T10:39:35;7.23;;;4.97;;
9848;SDS011;4963;51.444;6.528;2024-01-15T10:42:02;6.10;;;4.40;;
9848;SDS011;4963;51.444;6.528;2024-01-15T10:44:29;4.63;;;4.23;;
9848;SDS011;4963;51.444;6.528;2024-01-15T10:46:57;5.23;;;4.43;;
9848;SDS011;4963;51.444;6.528;2024-01-15T10:49:24;5.17;;;4.50;;
9848;SDS011;4963;51.444;6.528;2024-01-15T10:51:53;4.67;;;4.13;;
9848;SDS011;4963;51.444;6.528;2024-01-15T10:54:20;5.80;;;5.20;;
9848;SDS011;4963;51.444;6.528;2024-01-15T10:56:50;8.70;;;7.47;;
9848;SDS011;4963;51.444;6.528;2024-01-15T10:59:18;5.67;;;4.73;;
9848;SDS011;4963;51.444;6.528;2024-01-15T11:01:47;5.67;;;5.00;;
9848;SDS011;4963;51.444;6.528;2024-01-15T11:04:14;8.50;;;4.77;;
9848;SDS011;4963;51.444;6.528;2024-01-15T11:06:42;6.47;;;5.00;;
9848;SDS011;4963;51.444;6.528;2024-01-15T11:09:11;6.47;;;4.53;;
9848;SDS011;4963;51.444;6.528;2024-01-15T11:11:40;7.40;;;5.13;;
9848;SDS011;4963;51.444;6.528;2024-01-15T11:14:09;7.67;;;4.60;;
9848;SDS011;4963;51.444;6.528;2024-01-15T11:19:22;4.93;;;3.10;;
9848;SDS011;4963;51.444;6.528;2024-01-15T11:21:49;7.43;;;3.80;;
9848;SDS011;4963;51.444;6.528;2024-01-15T11:24:35;5.50;;;4.10;;
9848;SDS011;4963;51.444;6.528;2024-01-15T11:27:03;5.23;;;3.03;;
9848;SDS011;4963;51.444;6.528;2024-01-15T11:29:32;6.67;;;3.33;;
9848;SDS011;4963;51.444;6.528;2024-01-15T11:32:01;4.10;;;3.23;;
9848;SDS011;4963;51.444;6.528;2024-01-15T11:37:19;4.80;;;2.57;;
9848;SDS011;4963;51.444;6.528;2024-01-15T11:39:49;5.73;;;2.73;;
9848;SDS011;4963;51.444;6.528;2024-01-15T11:42:18;3.23;;;2.20;;
9848;SDS011;4963;51.444;6.528;2024-01-15T11:44:47;7.40;;;3.17;;
9848;SDS011;4963;51.444;6.528;2024-01-15T11:47:15;6.13;;;2.23;;
9848;SDS011;4963;51.444;6.528;2024-01-15T11:52:33;3.73;;;1.97;;
9848;SDS011;4963;51.444;6.528;2024-01-15T11:57:46;5.30;;;2.07;;
9848;SDS011;4963;51.444;6.528;2024-01-15T12:00:17;4.00;;;2.00;;
9848;SDS011;4963;51.444;6.528;2024-01-15T12:02:44;6.23;;;2.53;;
9848;SDS011;4963;51.444;6.528;2024-01-15T12:05:13;5.63;;;1.93;;
9848;SDS011;4963;51.444;6.528;2024-01-15T12:07:41;2.87;;;1.97;;
9848;SDS011;4963;51.444;6.528;2024-01-15T12:10:09;9.80;;;2.37;;
9848;SDS011;4963;51.444;6.528;2024-01-15T12:12:39;3.20;;;1.80;;
9848;SDS011;4963;51.444;6.528;2024-01-15T12:15:14;3.67;;;2.03;;
9848;SDS011;4963;51.444;6.528;2024-01-15T12:17:42;4.53;;;2.50;;
9848;SDS011;4963;51.444;6.528;2024-01-15T12:20:10;5.83;;;2.73;;
9848;SDS011;4963;51.444;6.528;2024-01-15T12:22:37;5.00;;;2.33;;
9848;SDS011;4963;51.444;6.528;2024-01-15T12:25:04;3.40;;;2.33;;
9848;SDS011;4963;51.444;6.528;2024-01-15T12:27:32;6.23;;;3.40;;
9848;SDS011;4963;51.444;6.528;2024-01-15T12:29:59;3.93;;;2.67;;
9848;SDS011;4963;51.444;6.528;2024-01-15T12:32:26;5.90;;;3.23;;
9848;SDS011;4963;51.444;6.528;2024-01-15T12:34:54;6.77;;;2.47;;
9848;SDS011;4963;51.444;6.528;2024-01-15T12:37:21;6.67;;;3.30;;
9848;SDS011;4963;51.444;6.528;2024-01-15T12:39:51;7.83;;;3.30;;
9848;SDS011;4963;51.444;6.528;2024-01-15T12:42:20;5.13;;;2.90;;
9848;SDS011;4963;51.444;6.528;2024-01-15T12:44:48;5.07;;;3.03;;
9848;SDS011;4963;51.444;6.528;2024-01-15T12:47:16;8.07;;;2.90;;
9848;SDS011;4963;51.444;6.528;2024-01-15T12:49:46;5.23;;;2.53;;
9848;SDS011;4963;51.444;6.528;2024-01-15T12:52:18;4.07;;;3.03;;
9848;SDS011;4963;51.444;6.528;2024-01-15T12:54:46;5.17;;;2.63;;
9848;SDS011;4963;51.444;6.528;2024-01-15T12:57:15;7.47;;;3.10;;
9848;SDS011;4963;51.444;6.528;2024-01-15T12:59:42;5.60;;;3.10;;
9848;SDS011;4963;51.444;6.528;2024-01-15T13:02:11;4.27;;;3.70;;
9848;SDS011;4963;51.444;6.528;2024-01-15T13:04:38;5.10;;;2.87;;
9848;SDS011;4963;51.444;6.528;2024-01-15T13:07:06;6.00;;;3.60;;
9848;SDS011;4963;51.444;6.528;2024-01-15T13:09:34;3.23;;;2.80;;
9848;SDS011;4963;51.444;6.528;2024-01-15T13:12:01;7.77;;;3.30;;
9848;SDS011;4963;51.444;6.528;2024-01-15T13:14:30;5.83;;;3.00;;
9848;SDS011;4963;51.444;6.528;2024-01-15T13:16:58;5.10;;;3.40;;
9848;SDS011;4963;51.444;6.528;2024-01-15T13:19:25;5.73;;;3.20;;
9848;SDS011;4963;51.444;6.528;2024-01-15T13:21:52;3.83;;;2.83;;
9848;SDS011;4963;51.444;6.528;2024-01-15T13:24:19;4.47;;;2.40;;
9848;SDS011;4963;51.444;6.528;2024-01-15T13:26:50;3.13;;;2.10;;
9848;SDS011;4963;51.444;6.528;2024-01-15T13:29:17;3.70;;;2.20;;
9848;SDS011;4963;51.444;6.528;2024-01-15T13:31:44;5.37;;;1.90;;
9848;SDS011;4963;51.444;6.528;2024-01-15T13:34:12;4.10;;;1.77;;
9848;SDS011;4963;51.444;6.528;2024-01-15T13:36:39;2.10;;;1.60;;
9848;SDS011;4963;51.444;6.528;2024-01-15T13:39:06;4.87;;;2.00;;
9848;SDS011;4963;51.444;6.528;2024-01-15T13:41:34;4.00;;;2.03;;
9848;SDS011;4963;51.444;6.528;2024-01-15T13:44:03;3.47;;;1.90;;
9848;SDS011;4963;51.444;6.528;2024-01-15T13:46:32;4.70;;;1.80;;
9848;SDS011;4963;51.444;6.528;2024-01-15T13:49:00;1.67;;;1.47;;
9848;SDS011;4963;51.444;6.528;2024-01-15T13:51:29;1.83;;;1.60;;
9848;SDS011;4963;51.444;6.528;2024-01-15T13:53:56;4.03;;;1.70;;
9848;SDS011;4963;51.444;6.528;2024-01-15T13:56:24;3.93;;;1.83;;
9848;SDS011;4963;51.444;6.528;2024-01-15T13:58:55;3.20;;;1.63;;
9848;SDS011;4963;51.444;6.528;2024-01-15T14:01:24;3.53;;;1.40;;
9848;SDS011;4963;51.444;6.528;2024-01-15T14:03:52;1.70;;;1.53;;
9848;SDS011;4963;51.444;6.528;2024-01-15T14:06:21;2.67;;;1.50;;
9848;SDS011;4963;51.444;6.528;2024-01-15T14:08:49;2.97;;;1.23;;
9848;SDS011;4963;51.444;6.528;2024-01-15T14:11:17;1.53;;;1.20;;
9848;SDS011;4963;51.444;6.528;2024-01-15T14:13:45;2.87;;;1.47;;
9848;SDS011;4963;51.444;6.528;2024-01-15T14:16:12;2.50;;;1.53;;
9848;SDS011;4963;51.444;6.528;2024-01-15T14:18:42;2.20;;;1.37;;
9848;SDS011;4963;51.444;6.528;2024-01-15T14:21:09;3.77;;;2.13;;
9848;SDS011;4963;51.444;6.528;2024-01-15T14:23:38;2.70;;;2.00;;
9848;SDS011;4963;51.444;6.528;2024-01-15T14:26:05;14.37;;;8.93;;
9848;SDS011;4963;51.444;6.528;2024-01-15T14:28:32;5.23;;;3.90;;
9848;SDS011;4963;51.444;6.528;2024-01-15T14:30:59;4.37;;;2.47;;
9848;SDS011;4963;51.444;6.528;2024-01-15T14:33:35;3.33;;;2.10;;
9848;SDS011;4963;51.444;6.528;2024-01-15T14:36:06;3.13;;;2.67;;
9848;SDS011;4963;51.444;6.528;2024-01-15T14:38:38;3.33;;;2.50;;
9848;SDS011;4963;51.444;6.528;2024-01-15T14:41:10;3.63;;;2.20;;
9848;SDS011;4963;51.444;6.528;2024-01-15T14:43:38;2.93;;;2.33;;
9848;SDS011;4963;51.444;6.528;2024-01-15T14:46:15;3.57;;;2.50;;
9848;SDS011;4963;51.444;6.528;2024-01-15T14:48:48;6.00;;;2.60;;
9848;SDS011;4963;51.444;6.528;2024-01-15T14:51:26;3.80;;;2.30;;
9848;SDS011;4963;51.444;6.528;2024-01-15T14:53:54;4.30;;;2.30;;
9848;SDS011;4963;51.444;6.528;2024-01-15T14:56:22;2.50;;;2.27;;
9848;SDS011;4963;51.444;6.528;2024-01-15T14:58:57;3.03;;;2.57;;
9848;SDS011;4963;51.444;6.528;2024-01-15T15:01:24;3.40;;;2.57;;
9848;SDS011;4963;51.444;6.528;2024-01-15T15:03:51;6.80;;;3.07;;
9848;SDS011;4963;51.444;6.528;2024-01-15T15:06:19;4.57;;;3.20;;
9848;SDS011;4963;51.444;6.528;2024-01-15T15:08:46;9.87;;;6.33;;
9848;SDS011;4963;51.444;6.528;2024-01-15T15:11:13;6.27;;;4.57;;
9848;SDS011;4963;51.444;6.528;2024-01-15T15:13:40;6.50;;;3.67;;
9848;SDS011;4963;51.444;6.528;2024-01-15T15:16:07;3.60;;;3.20;;
9848;SDS011;4963;51.444;6.528;2024-01-15T15:18:34;13.90;;;7.73;;